createdAt,value
2023-05-25T00:01:59.418Z,100.00
2023-05-25T00:04:30.397Z,100.00
2023-05-25T00:07:02.281Z,100.00
2023-05-25T00:09:34.441Z,100.00
2023-05-25T00:12:07.076Z,100.00
2023-05-25T00:14:38.888Z,100.00
2023-05-25T00:17:11.384Z,100.00
2023-05-25T00:19:44.295Z,100.00
2023-05-25T00:22:15.922Z,100.00
2023-05-25T00:24:47.702Z,100.00
2023-05-25T00:27:19.505Z,100.00
2023-05-25T00:29:51.158Z,100.00
2023-05-25T00:32:23.111Z,100.00
2023-05-25T00:34:55.162Z,100.00
2023-05-25T00:37:26.935Z,100.00
2023-05-25T00:39:58.654Z,100.00
2023-05-25T00:42:33.231Z,100.00
2023-05-25T00:45:05.273Z,100.00
2023-05-25T00:47:38.197Z,100.00
2023-05-25T00:50:17.189Z,100.00
2023-05-25T00:52:49.905Z,100.00
2023-05-25T00:55:20.501Z,100.00
2023-05-25T00:57:56.128Z,100.00
2023-05-25T01:00:28.864Z,100.00
2023-05-25T01:03:00.483Z,100.00
2023-05-25T01:05:35.590Z,100.00
2023-05-25T01:08:10.062Z,100.00
2023-05-25T01:10:44.057Z,100.00
2023-05-25T01:13:18.394Z,100.00
2023-05-25T01:15:50.976Z,100.00
2023-05-25T01:18:22.686Z,100.00
2023-05-25T01:21:13.193Z,100.00
2023-05-25T01:23:53.756Z,100.00
2023-05-25T01:26:30.553Z,100.00
2023-05-25T01:29:05.853Z,100.00
2023-05-25T01:31:38.564Z,100.00
2023-05-25T01:34:12.171Z,100.00
2023-05-25T01:36:45.138Z,100.00
2023-05-25T01:39:16.873Z,100.00
2023-05-25T01:41:48.842Z,100.00
2023-05-25T01:44:21.874Z,100.00
2023-05-25T01:46:59.777Z,100.00
2023-05-25T01:49:38.624Z,100.00
2023-05-25T01:52:20.496Z,100.00
2023-05-25T01:54:56.229Z,100.00
2023-05-25T01:57:31.069Z,100.00
2023-05-25T02:00:04.754Z,100.00
2023-05-25T02:02:47.734Z,100.00
2023-05-25T02:05:22.300Z,99.94
2023-05-25T02:07:55.020Z,99.96
2023-05-25T02:10:26.803Z,99.93
2023-05-25T02:12:58.972Z,99.93
2023-05-25T02:15:34.913Z,100.00
2023-05-25T02:18:08.613Z,99.94
2023-05-25T02:20:40.505Z,100.00
2023-05-25T02:23:12.489Z,100.00
2023-05-25T02:25:44.536Z,100.00
2023-05-25T02:28:16.827Z,99.86
2023-05-25T02:30:48.540Z,99.98
2023-05-25T02:33:20.299Z,99.91
2023-05-25T02:35:52.094Z,99.59
2023-05-25T02:38:24.309Z,99.58
2023-05-25T02:40:55.976Z,99.92
2023-05-25T02:43:28.280Z,99.87
2023-05-25T02:45:59.992Z,99.87
2023-05-25T02:48:32.154Z,99.85
2023-05-25T02:51:04.070Z,100.00
2023-05-25T02:53:36.841Z,100.00
2023-05-25T02:56:10.741Z,100.00
2023-05-25T02:58:43.210Z,100.00
2023-05-25T03:01:19.694Z,100.00
2023-05-25T03:03:55.656Z,100.00
2023-05-25T03:06:29.650Z,100.00
2023-05-25T03:09:06.142Z,100.00
2023-05-25T03:11:38.009Z,100.00
2023-05-25T03:14:10.418Z,100.00
2023-05-25T03:16:43.459Z,100.00
2023-05-25T03:19:15.401Z,100.00
2023-05-25T03:21:47.208Z,100.00
2023-05-25T03:24:19.226Z,100.00
2023-05-25T03:26:51.614Z,100.00
2023-05-25T03:29:23.410Z,100.00
2023-05-25T03:31:55.406Z,100.00
2023-05-25T03:34:29.536Z,100.00
2023-05-25T03:37:01.362Z,100.00
2023-05-25T03:39:33.612Z,100.00
2023-05-25T03:42:06.408Z,100.00
2023-05-25T03:44:40.489Z,100.00
2023-05-25T03:47:13.647Z,100.00
2023-05-25T03:49:45.510Z,100.00
2023-05-25T03:52:18.001Z,100.00
2023-05-25T03:54:50.184Z,100.00
2023-05-25T03:57:21.982Z,100.00
2023-05-25T03:59:53.717Z,100.00
2023-05-25T04:02:25.752Z,100.00
2023-05-25T04:05:00.358Z,100.00
2023-05-25T04:07:32.357Z,100.00
2023-05-25T04:10:04.246Z,100.00
2023-05-25T04:12:36.331Z,100.00
2023-05-25T04:15:10.334Z,100.00
2023-05-25T04:17:55.033Z,100.00
2023-05-25T04:20:27.231Z,100.00
2023-05-25T04:22:58.506Z,100.00
2023-05-25T04:25:32.225Z,100.00
2023-05-25T04:28:04.203Z,100.00
2023-05-25T04:30:56.996Z,100.00
2023-05-25T04:33:52.098Z,100.00
2023-05-25T04:36:33.167Z,100.00
2023-05-25T04:39:07.416Z,100.00
2023-05-25T04:41:43.045Z,100.00
2023-05-25T04:44:15.632Z,100.00
2023-05-25T04:46:51.113Z,100.00
2023-05-25T04:49:28.557Z,100.00
2023-05-25T04:52:00.419Z,99.74
2023-05-25T04:54:34.411Z,99.15
2023-05-25T04:57:07.778Z,98.77
2023-05-25T04:59:39.545Z,98.75
2023-05-25T05:02:11.453Z,98.20
2023-05-25T05:04:43.747Z,97.26
2023-05-25T05:07:15.583Z,96.26
2023-05-25T05:09:47.805Z,95.73
2023-05-25T05:12:19.638Z,95.37
2023-05-25T05:14:55.994Z,95.10
2023-05-25T05:17:30.598Z,95.12
2023-05-25T05:20:02.591Z,94.61
2023-05-25T05:22:35.408Z,93.55
2023-05-25T05:25:10.957Z,92.92
2023-05-25T05:27:42.856Z,93.05
2023-05-25T05:30:22.327Z,92.67
2023-05-25T05:32:54.190Z,92.65
2023-05-25T05:35:28.084Z,92.30
2023-05-25T05:38:11.150Z,91.77
2023-05-25T05:40:43.107Z,91.31
2023-05-25T05:43:15.427Z,91.16
2023-05-25T05:45:47.792Z,91.19
2023-05-25T05:48:19.856Z,90.42
2023-05-25T05:50:52.443Z,90.22
2023-05-25T05:53:24.547Z,90.04
2023-05-25T05:55:59.175Z,89.96
2023-05-25T05:58:32.522Z,89.73
2023-05-25T06:01:06.340Z,89.25
2023-05-25T06:03:38.064Z,88.72
2023-05-25T06:06:10.189Z,88.24
2023-05-25T06:08:43.337Z,88.23
2023-05-25T06:11:15.399Z,88.08
2023-05-25T06:13:48.281Z,87.09
2023-05-25T06:16:20.769Z,87.38
2023-05-25T06:18:51.285Z,87.40
2023-05-25T06:21:23.205Z,86.88
2023-05-25T06:23:57.800Z,86.54
2023-05-25T06:26:29.623Z,86.60
2023-05-25T06:29:01.863Z,85.98
2023-05-25T06:31:33.796Z,85.68
2023-05-25T06:34:05.518Z,85.24
2023-05-25T06:36:37.297Z,85.06
2023-05-25T06:39:09.526Z,84.35
2023-05-25T06:41:42.126Z,84.22
2023-05-25T06:44:13.848Z,83.48
2023-05-25T06:46:50.897Z,83.38
2023-05-25T06:49:22.793Z,83.18
2023-05-25T06:51:54.566Z,83.23
2023-05-25T06:54:26.816Z,83.04
2023-05-25T06:56:58.537Z,81.83
2023-05-25T06:59:31.067Z,81.17
2023-05-25T07:02:02.895Z,81.69
2023-05-25T07:04:34.755Z,80.31
2023-05-25T07:07:07.696Z,80.48
2023-05-25T07:09:39.799Z,78.25
2023-05-25T07:12:11.658Z,77.20
2023-05-25T07:14:43.767Z,77.00
2023-05-25T07:17:15.633Z,77.32
2023-05-25T07:19:48.720Z,76.84
2023-05-25T07:22:20.548Z,78.51
2023-05-25T07:24:52.575Z,79.50
2023-05-25T07:27:25.553Z,78.95
2023-05-25T07:29:57.485Z,76.36
2023-05-25T07:32:29.328Z,75.45
2023-05-25T07:35:01.193Z,75.71
2023-05-25T07:37:32.995Z,75.40
2023-05-25T07:40:06.171Z,74.82
2023-05-25T07:42:38.014Z,73.30
2023-05-25T07:45:12.439Z,73.27
2023-05-25T07:47:44.231Z,72.63
2023-05-25T07:50:16.634Z,71.36
2023-05-25T07:52:49.079Z,71.69
2023-05-25T07:55:21.260Z,71.10
2023-05-25T07:57:53.132Z,70.74
2023-05-25T08:00:25.398Z,71.16
2023-05-25T08:02:58.340Z,70.39
2023-05-25T08:05:30.474Z,69.05
2023-05-25T08:08:02.421Z,68.85
2023-05-25T08:10:34.862Z,68.93
2023-05-25T08:13:06.941Z,69.16
2023-05-25T08:15:38.750Z,69.90
2023-05-25T08:18:10.514Z,69.39
2023-05-25T08:20:42.690Z,68.97
2023-05-25T08:23:14.816Z,68.72
2023-05-25T08:25:46.902Z,68.09
2023-05-25T08:28:19.180Z,67.95
2023-05-25T08:30:51.082Z,67.47
2023-05-25T08:33:25.147Z,66.65
2023-05-25T08:35:59.318Z,66.60
2023-05-25T08:38:31.804Z,67.03
2023-05-25T08:41:07.308Z,66.97
2023-05-25T08:43:39.176Z,66.44
2023-05-25T08:46:11.309Z,66.75
2023-05-25T08:48:44.915Z,67.09
2023-05-25T08:51:18.894Z,67.31
2023-05-25T08:53:51.727Z,66.70
2023-05-25T08:56:28.119Z,67.02
2023-05-25T08:59:10.085Z,66.80
2023-05-25T09:01:47.100Z,66.99
2023-05-25T09:04:19.587Z,67.17
2023-05-25T09:07:05.691Z,66.80
2023-05-25T09:09:42.904Z,66.81
2023-05-25T09:12:15.184Z,67.12
2023-05-25T09:14:48.061Z,67.41
2023-05-25T09:17:21.169Z,67.02
2023-05-25T09:19:51.769Z,67.20
2023-05-25T09:22:23.674Z,67.34
2023-05-25T09:24:56.025Z,66.13
2023-05-25T09:27:28.398Z,66.23
2023-05-25T09:30:01.902Z,65.55
2023-05-25T09:32:33.809Z,65.45
2023-05-25T09:35:11.965Z,65.68
2023-05-25T09:37:45.721Z,65.86
2023-05-25T09:40:18.309Z,65.62
2023-05-25T09:42:51.011Z,64.53
2023-05-25T09:45:21.451Z,63.98
2023-05-25T09:47:57.001Z,63.71
2023-05-25T09:50:30.096Z,63.56
2023-05-25T09:53:03.525Z,63.09
2023-05-25T09:55:51.524Z,62.21
2023-05-25T09:58:27.517Z,61.49
2023-05-25T10:00:59.387Z,61.48
2023-05-25T10:03:31.451Z,60.51
2023-05-25T10:06:04.463Z,60.94
2023-05-25T10:08:36.383Z,60.62
2023-05-25T10:11:08.773Z,59.85
2023-05-25T10:13:41.658Z,59.67
2023-05-25T10:16:17.660Z,59.79
2023-05-25T10:18:56.326Z,59.13
2023-05-25T10:21:30.010Z,58.80
2023-05-25T10:24:07.543Z,58.57
2023-05-25T10:26:48.446Z,59.25
2023-05-25T10:29:21.496Z,58.89
2023-05-25T10:31:54.437Z,57.42
2023-05-25T10:34:27.085Z,57.38
2023-05-25T10:37:00.288Z,57.38
2023-05-25T10:39:33.133Z,57.41
2023-05-25T10:42:06.734Z,58.10
2023-05-25T10:44:39.259Z,58.06
2023-05-25T10:47:10.293Z,57.03
2023-05-25T10:49:56.381Z,56.39
2023-05-25T10:52:31.884Z,56.83
2023-05-25T10:55:05.378Z,56.91
2023-05-25T10:57:37.185Z,57.02
2023-05-25T11:00:14.676Z,56.70
2023-05-25T11:02:55.732Z,56.42
2023-05-25T11:05:36.652Z,55.87
2023-05-25T11:08:12.109Z,55.33
2023-05-25T11:11:00.655Z,55.57
2023-05-25T11:13:45.240Z,55.32
2023-05-25T11:16:22.154Z,54.65
2023-05-25T11:18:57.706Z,53.44
2023-05-25T11:21:46.245Z,53.06
2023-05-25T11:24:21.363Z,53.45
2023-05-25T11:26:58.577Z,52.85
2023-05-25T11:29:36.167Z,53.44
2023-05-25T11:32:13.222Z,53.68
2023-05-25T11:34:46.579Z,52.41
2023-05-25T11:37:21.616Z,53.07
2023-05-25T11:39:54.044Z,53.05
2023-05-25T11:42:27.798Z,52.80
2023-05-25T11:45:02.835Z,53.00
2023-05-25T11:47:35.800Z,52.26
2023-05-25T11:50:16.054Z,52.20
2023-05-25T11:52:48.026Z,51.89
2023-05-25T11:55:19.893Z,52.17
2023-05-25T11:57:58.751Z,51.38
2023-05-25T12:00:31.494Z,50.35
2023-05-25T12:03:03.857Z,50.06
2023-05-25T12:05:42.209Z,50.27
2023-05-25T12:08:14.160Z,50.08
2023-05-25T12:10:55.795Z,50.51
2023-05-25T12:13:27.963Z,50.59
2023-05-25T12:16:00.500Z,50.41
2023-05-25T12:18:32.992Z,50.89
2023-05-25T12:21:08.210Z,50.82
2023-05-25T12:23:40.236Z,50.58
2023-05-25T12:26:13.897Z,51.39
2023-05-25T12:29:02.860Z,50.83
2023-05-25T12:31:35.748Z,50.96
2023-05-25T12:34:12.716Z,51.06
2023-05-25T12:36:47.921Z,50.86
2023-05-25T12:39:32.456Z,50.50
2023-05-25T12:42:04.949Z,50.55
2023-05-25T12:44:38.059Z,50.31
2023-05-25T12:47:19.606Z,49.71
2023-05-25T12:49:53.365Z,50.19
2023-05-25T12:52:38.619Z,49.44
2023-05-25T12:55:27.162Z,49.25
2023-05-25T12:58:01.584Z,49.72
2023-05-25T13:00:37.716Z,50.49
2023-05-25T13:03:09.847Z,50.51
2023-05-25T13:05:42.375Z,50.75
2023-05-25T13:08:15.689Z,49.98
2023-05-25T13:10:51.452Z,49.47
2023-05-25T13:13:23.383Z,49.25
2023-05-25T13:15:55.478Z,49.21
2023-05-25T13:18:27.499Z,49.50
2023-05-25T13:20:59.684Z,49.13
2023-05-25T13:23:32.116Z,49.04
2023-05-25T13:26:04.259Z,48.91
2023-05-25T13:28:36.746Z,49.09
2023-05-25T13:31:08.554Z,49.01
2023-05-25T13:33:40.444Z,49.05
2023-05-25T13:36:12.556Z,48.51
2023-05-25T13:38:45.190Z,48.38
2023-05-25T13:41:16.576Z,48.55
2023-05-25T13:43:48.896Z,48.15
2023-05-25T13:46:33.641Z,47.78
2023-05-25T13:49:06.622Z,47.17
2023-05-25T13:51:38.630Z,46.58
2023-05-25T13:54:12.871Z,45.54
2023-05-25T13:56:44.971Z,45.73
2023-05-25T13:59:16.824Z,45.15
2023-05-25T14:01:48.786Z,45.11
2023-05-25T14:04:21.167Z,45.42
2023-05-25T14:06:53.040Z,44.83
2023-05-25T14:09:24.804Z,44.33
2023-05-25T14:11:57.137Z,44.55
2023-05-25T14:14:32.153Z,43.84
2023-05-25T14:17:04.885Z,42.56
2023-05-25T14:19:37.090Z,43.38
2023-05-25T14:22:13.775Z,43.73
2023-05-25T14:24:46.593Z,43.60
2023-05-25T14:27:21.240Z,42.47
2023-05-25T14:29:53.752Z,42.22
2023-05-25T14:32:25.893Z,42.07
2023-05-25T14:34:58.306Z,41.45
2023-05-25T14:37:30.299Z,41.11
2023-05-25T14:40:02.128Z,40.72
2023-05-25T14:42:34.139Z,40.92
2023-05-25T14:45:08.690Z,40.40
2023-05-25T14:47:42.966Z,40.30
2023-05-25T14:50:14.972Z,40.33
2023-05-25T14:52:47.093Z,39.46
2023-05-25T14:55:18.950Z,38.82
2023-05-25T14:57:50.780Z,38.09
2023-05-25T15:00:23.038Z,38.00
2023-05-25T15:02:54.908Z,37.91
2023-05-25T15:05:26.829Z,37.36
2023-05-25T15:07:59.034Z,37.09
2023-05-25T15:10:30.755Z,36.60
2023-05-25T15:13:02.566Z,36.77
2023-05-25T15:15:34.926Z,36.83
2023-05-25T15:18:07.352Z,36.48
2023-05-25T15:20:42.041Z,36.43
2023-05-25T15:23:14.931Z,36.96
2023-05-25T15:25:45.208Z,37.34
2023-05-25T15:28:17.983Z,38.18
2023-05-25T15:30:50.468Z,37.61
2023-05-25T15:33:22.089Z,37.50
2023-05-25T15:35:56.034Z,37.40
2023-05-25T15:38:28.584Z,37.01
2023-05-25T15:41:00.562Z,36.73
2023-05-25T15:43:32.424Z,36.81
2023-05-25T15:46:04.470Z,37.18
2023-05-25T15:48:36.450Z,37.06
2023-05-25T15:51:08.431Z,37.58
2023-05-25T15:53:41.743Z,37.04
2023-05-25T15:56:14.171Z,36.72
2023-05-25T15:58:48.742Z,37.02
2023-05-25T16:01:20.603Z,36.75
2023-05-25T16:03:52.500Z,36.54
2023-05-25T16:06:25.195Z,36.67
2023-05-25T16:08:59.882Z,36.85
2023-05-25T16:11:34.357Z,37.14
2023-05-25T16:14:06.225Z,36.94
2023-05-25T16:16:38.512Z,36.90
2023-05-25T16:19:09.356Z,36.96
2023-05-25T16:21:42.657Z,36.54
2023-05-25T16:24:14.588Z,36.20
2023-05-25T16:26:46.457Z,36.28
2023-05-25T16:29:18.708Z,35.97
2023-05-25T16:31:50.987Z,35.49
2023-05-25T16:34:23.151Z,34.88
2023-05-25T16:36:54.944Z,34.73
2023-05-25T16:39:27.152Z,34.31
2023-05-25T16:41:59.187Z,34.20
2023-05-25T16:44:31.652Z,33.92
2023-05-25T16:47:03.462Z,33.80
2023-05-25T16:49:35.537Z,33.64
2023-05-25T16:52:08.077Z,33.78
2023-05-25T16:54:40.355Z,33.84
2023-05-25T16:57:12.518Z,34.74
2023-05-25T16:59:43.145Z,35.98
2023-05-25T17:02:14.851Z,36.53
2023-05-25T17:04:47.282Z,37.49
2023-05-25T17:07:19.701Z,38.34
2023-05-25T17:09:51.806Z,38.87
2023-05-25T17:12:24.176Z,39.22
2023-05-25T17:14:56.408Z,40.19
2023-05-25T17:17:28.911Z,40.64
2023-05-25T17:20:01.342Z,40.86
2023-05-25T17:22:33.968Z,41.06
2023-05-25T17:25:07.407Z,41.22
2023-05-25T17:27:39.210Z,41.31
2023-05-25T17:30:14.070Z,41.20
2023-05-25T17:32:46.087Z,41.31
2023-05-25T17:35:18.844Z,41.89
2023-05-25T17:37:50.952Z,42.10
2023-05-25T17:40:23.059Z,42.28
2023-05-25T17:42:55.415Z,42.17
2023-05-25T17:45:27.919Z,42.32
2023-05-25T17:48:01.194Z,42.34
2023-05-25T17:50:33.455Z,42.56
2023-05-25T17:53:05.398Z,42.50
2023-05-25T17:55:37.545Z,43.12
2023-05-25T17:58:09.391Z,42.97
2023-05-25T18:00:40.690Z,43.37
2023-05-25T18:03:12.591Z,43.53
2023-05-25T18:05:45.109Z,43.94
2023-05-25T18:08:17.229Z,44.45
2023-05-25T18:10:50.296Z,44.79
2023-05-25T18:13:22.672Z,44.73
2023-05-25T18:15:54.713Z,45.21
2023-05-25T18:18:29.116Z,45.59
2023-05-25T18:21:00.963Z,45.90
2023-05-25T18:23:32.853Z,46.25
2023-05-25T18:26:05.782Z,46.32
2023-05-25T18:28:37.890Z,47.05
2023-05-25T18:31:09.779Z,47.50
2023-05-25T18:33:42.207Z,47.90
2023-05-25T18:36:15.244Z,48.42
2023-05-25T18:38:47.544Z,49.19
2023-05-25T18:41:21.455Z,49.58
2023-05-25T18:43:55.432Z,49.92
2023-05-25T18:46:28.587Z,50.48
2023-05-25T18:49:00.778Z,50.77
2023-05-25T18:51:33.804Z,51.22
2023-05-25T18:54:05.929Z,52.05
2023-05-25T18:56:39.413Z,52.01
2023-05-25T18:59:10.080Z,52.55
2023-05-25T19:01:42.499Z,53.30
2023-05-25T19:04:15.873Z,53.87
2023-05-25T19:06:48.713Z,54.94
2023-05-25T19:09:22.041Z,55.20
2023-05-25T19:11:54.357Z,56.05
2023-05-25T19:14:27.402Z,56.42
2023-05-25T19:16:59.898Z,56.68
2023-05-25T19:19:32.431Z,57.56
2023-05-25T19:22:06.559Z,58.35
2023-05-25T19:24:42.300Z,59.25
2023-05-25T19:27:15.559Z,59.59
2023-05-25T19:29:47.873Z,60.26
2023-05-25T19:32:21.470Z,61.19
2023-05-25T19:34:55.090Z,61.76
2023-05-25T19:37:27.975Z,62.67
2023-05-25T19:40:00.208Z,62.90
2023-05-25T19:42:33.559Z,63.63
2023-05-25T19:45:06.933Z,64.05
2023-05-25T19:47:39.422Z,64.47
2023-05-25T19:50:12.029Z,64.63
2023-05-25T19:52:44.281Z,65.05
2023-05-25T19:55:15.258Z,65.31
2023-05-25T19:57:47.362Z,65.74
2023-05-25T20:00:25.975Z,65.84
2023-05-25T20:03:00.180Z,66.44
2023-05-25T20:05:33.193Z,66.45
2023-05-25T20:08:06.843Z,67.02
2023-05-25T20:10:40.608Z,67.21
2023-05-25T20:13:11.334Z,66.96
2023-05-25T20:15:44.144Z,67.29
2023-05-25T20:18:18.403Z,67.61
2023-05-25T20:20:50.906Z,67.79
2023-05-25T20:23:23.049Z,67.95
2023-05-25T20:25:55.004Z,68.36
2023-05-25T20:28:27.754Z,68.65
2023-05-25T20:30:59.903Z,68.69
2023-05-25T20:33:32.076Z,68.98
2023-05-25T20:36:04.011Z,69.28
2023-05-25T20:38:36.109Z,70.23
2023-05-25T20:41:08.367Z,70.08
2023-05-25T20:43:40.837Z,70.52
2023-05-25T20:46:14.237Z,70.75
2023-05-25T20:48:47.674Z,71.23
2023-05-25T20:51:19.403Z,71.01
2023-05-25T20:53:51.366Z,71.15
2023-05-25T20:56:22.857Z,71.23
2023-05-25T20:58:54.741Z,71.33
2023-05-25T21:01:26.559Z,71.49
2023-05-25T21:03:59.420Z,71.33
2023-05-25T21:06:32.409Z,70.72
2023-05-25T21:09:03.210Z,70.52
2023-05-25T21:11:36.107Z,70.77
2023-05-25T21:14:08.292Z,70.78
2023-05-25T21:16:40.207Z,70.77
2023-05-25T21:19:12.603Z,70.72
2023-05-25T21:21:44.769Z,70.47
2023-05-25T21:24:16.936Z,70.63
2023-05-25T21:26:48.791Z,70.28
2023-05-25T21:29:21.575Z,70.35
2023-05-25T21:31:53.447Z,70.78
2023-05-25T21:34:25.435Z,71.10
2023-05-25T21:36:58.086Z,71.33
2023-05-25T21:39:29.853Z,71.09
2023-05-25T21:42:02.347Z,71.31
2023-05-25T21:44:34.157Z,71.27
2023-05-25T21:47:06.076Z,71.09
2023-05-25T21:49:37.856Z,71.00
2023-05-25T21:52:23.290Z,71.56
2023-05-25T21:54:55.459Z,72.30
2023-05-25T21:57:27.139Z,73.03
2023-05-25T21:59:58.887Z,72.84
2023-05-25T22:02:31.215Z,72.44
2023-05-25T22:05:06.476Z,72.91
2023-05-25T22:07:38.146Z,73.53
2023-05-25T22:10:11.798Z,74.12
2023-05-25T22:12:44.288Z,74.42
2023-05-25T22:15:15.976Z,74.61
2023-05-25T22:17:47.604Z,75.02
2023-05-25T22:20:20.243Z,75.17
2023-05-25T22:22:52.152Z,75.06
2023-05-25T22:25:24.319Z,74.86
2023-05-25T22:27:56.492Z,75.37
2023-05-25T22:30:28.304Z,75.58
2023-05-25T22:33:00.113Z,76.16
2023-05-25T22:35:32.433Z,76.21
2023-05-25T22:38:04.458Z,76.56
2023-05-25T22:40:36.170Z,76.79
2023-05-25T22:43:12.814Z,77.09
2023-05-25T22:45:45.263Z,77.86
2023-05-25T22:48:15.803Z,77.87
2023-05-25T22:50:47.577Z,78.28
2023-05-25T22:53:19.318Z,78.32
2023-05-25T22:55:51.263Z,78.60
2023-05-25T22:58:23.648Z,78.25
2023-05-25T23:00:56.227Z,78.12
2023-05-25T23:03:28.531Z,77.48
2023-05-25T23:06:00.520Z,77.60
2023-05-25T23:08:32.268Z,77.25
2023-05-25T23:11:04.013Z,76.24
2023-05-25T23:13:35.923Z,75.77
2023-05-25T23:16:08.309Z,75.76
2023-05-25T23:18:40.070Z,75.88
2023-05-25T23:21:11.872Z,75.69
2023-05-25T23:23:43.704Z,75.43
2023-05-25T23:26:15.621Z,75.64
2023-05-25T23:28:47.507Z,75.68
2023-05-25T23:31:19.451Z,75.52
2023-05-25T23:33:51.165Z,75.72
2023-05-25T23:36:26.248Z,75.43
2023-05-25T23:38:58.185Z,75.63
2023-05-25T23:41:29.903Z,75.61
2023-05-25T23:44:01.948Z,75.70
2023-05-25T23:46:33.679Z,75.52
2023-05-25T23:49:05.527Z,75.50
2023-05-25T23:51:37.459Z,75.40
2023-05-25T23:54:09.156Z,75.90
2023-05-25T23:56:40.904Z,76.23
2023-05-25T23:59:15.348Z,76.37
